Terminal Aerodrome Forecast
Issued by NWS

Home | Current Version | Previous Version | Text Only | Print | Product List | Glossary On
Versions: 1 2 3 4 5 6 7 8 9 10 11 12 13 14 15 16 17 18 19 20 21 22 23 24 25 26 27
000
FTUS44 KHGX 292320
TAFUTS
TAF
KUTS 292320Z 3000/3024 17007KT P6SM FEW050 SCT250
     FM300900 00000KT P6SM SCT250
      TEMPO 3009/3013 4SM BR SCT012
     FM301400 15004KT P6SM SCT015 BKN150
     FM301700 15005KT P6SM SCT035
     FM302200 15006KT P6SM FEW040=

USA.gov is the U.S. government's official web portal to all federal, state and local government web resources and services.